Time;durP1;ratioP1;P1;durP2;ratioP2;P2;SDS_P1;SDS_P2;PMS_P1;PMS_P2;Temp;Humidity;BMP_temperature;BMP_pressure;BME280_temperature;BME280_humidity;BME280_pressure;Samples;Min_cycle;Max_cycle;Signal;HPM_P1;HPM_P2
2023/04/18 00:00:04;;;;;;;;;59.25;46.00;;;;;13.16;51.92;101800.88;5059344;28;45548;-57
2023/04/18 00:02:29;;;;;;;;;59.25;45.50;;;;;13.15;51.96;101800.88;5042285;28;45364;-53
2023/04/18 00:04:55;;;;;;;;;57.00;43.75;;;;;13.13;51.87;101795.63;5059246;28;45665;-53
2023/04/18 00:07:20;;;;;;;;;59.25;47.00;;;;;13.13;51.75;101793.00;5059473;28;46825;-54
2023/04/18 00:09:45;;;;;;;;;55.50;43.00;;;;;13.12;51.84;101795.66;5059223;28;45320;-54
2023/04/18 00:12:11;;;;;;;;;60.50;48.00;;;;;13.11;52.13;101791.25;5059510;28;45438;-55
2023/04/18 00:14:36;;;;;;;;;57.75;46.75;;;;;13.08;51.98;101794.78;5059409;28;45425;-54
2023/04/18 00:17:03;;;;;;;;;58.00;46.25;;;;;13.08;52.12;101789.50;5060710;28;45941;-54
2023/04/18 00:19:28;;;;;;;;;60.50;47.00;;;;;13.07;51.93;101789.50;5062690;28;45327;-55
2023/04/18 00:21:54;;;;;;;;;61.75;47.75;;;;;13.05;52.02;101792.16;5063150;28;45311;-56
2023/04/18 00:24:20;;;;;;;;;61.25;48.75;;;;;13.06;51.70;101798.34;5062574;28;45237;-56
2023/04/18 00:26:45;;;;;;;;;63.00;47.00;;;;;13.01;52.04;101787.81;5061381;28;45244;-54
2023/04/18 00:29:10;;;;;;;;;62.50;47.75;;;;;12.98;52.06;101779.91;5062564;28;45170;-56
2023/04/18 00:31:36;;;;;;;;;63.75;49.50;;;;;12.97;52.03;101783.44;5062671;28;48815;-57
2023/04/18 00:34:02;;;;;;;;;59.25;47.25;;;;;12.97;51.97;101788.72;5060948;28;45302;-56
2023/04/18 00:36:27;;;;;;;;;63.50;49.75;;;;;12.94;52.17;101792.25;5062241;28;46358;-57
2023/04/18 00:38:52;;;;;;;;;63.00;47.75;;;;;12.91;52.21;101784.34;5062529;28;45464;-57
2023/04/18 00:41:19;;;;;;;;;62.25;48.25;;;;;12.89;52.12;101782.59;5062807;28;45285;-56
2023/04/18 00:43:44;;;;;;;;;63.25;48.50;;;;;12.86;51.99;101785.28;5062525;28;45266;-56
2023/04/18 00:46:09;;;;;;;;;62.00;49.00;;;;;12.84;52.14;101780.91;5062394;28;46990;-56
2023/04/18 00:48:37;;;;;;;;;65.75;51.00;;;;;12.81;52.02;101786.16;5062234;28;46710;-57
2023/04/18 00:51:03;;;;;;;;;63.50;49.75;;;;;12.78;52.05;101775.66;5062525;28;45404;-57
2023/04/18 00:53:29;;;;;;;;;63.25;47.50;;;;;12.77;52.02;101775.69;5062389;28;45397;-58
2023/04/18 00:55:55;;;;;;;;;65.50;52.25;;;;;12.75;52.04;101774.78;5062395;28;46152;-57
2023/04/18 00:58:20;;;;;;;;;64.75;49.25;;;;;12.71;52.30;101766.03;5061446;28;45390;-57
2023/04/18 01:00:47;;;;;;;;;64.75;50.25;;;;;12.71;52.08;101773.06;5062632;28;45157;-56
2023/04/18 01:03:13;;;;;;;;;65.00;50.25;;;;;12.67;52.30;101769.59;5062284;28;45237;-56
2023/04/18 01:05:39;;;;;;;;;66.75;51.50;;;;;12.67;52.14;101780.13;5062045;28;46627;-56
2023/04/18 01:08:04;;;;;;;;;68.50;52.00;;;;;12.65;52.04;101771.34;5061981;28;45357;-57
2023/04/18 01:10:30;;;;;;;;;60.25;48.25;;;;;12.63;51.98;101759.94;5062238;28;45312;-56
2023/04/18 01:13:16;;;;;;;;;64.75;50.25;;;;;12.60;52.37;101752.94;5062116;28;45441;-56
2023/04/18 01:15:46;;;;;;;;;61.75;48.00;;;;;12.60;52.28;101760.84;5062080;28;46311;-58
2023/04/18 01:18:12;;;;;;;;;66.00;50.25;;;;;12.57;52.32;101758.22;5061982;28;45229;-57
2023/04/18 01:20:45;;;;;;;;;64.75;50.75;;;;;12.58;52.11;101761.72;5061894;28;45178;-56
2023/04/18 01:23:11;;;;;;;;;58.25;45.50;;;;;12.57;52.25;101768.75;5049834;28;45172;-56
2023/04/18 01:25:37;;;;;;;;;62.25;47.25;;;;;12.56;52.42;101753.81;5061564;28;46119;-57
2023/04/18 01:28:03;;;;;;;;;63.50;50.50;;;;;12.55;52.09;101754.69;5061018;28;45226;-57
2023/04/18 01:30:28;;;;;;;;;66.50;50.25;;;;;12.52;52.05;101752.09;5061783;28;45236;-57
2023/04/18 01:32:54;;;;;;;;;65.00;50.25;;;;;12.54;52.18;101757.34;5043518;28;45250;-56
2023/04/18 01:35:19;;;;;;;;;71.25;54.00;;;;;12.51;52.34;101748.59;5059955;28;46252;-56
2023/04/18 01:37:45;;;;;;;;;65.25;50.75;;;;;12.51;52.19;101748.59;5061281;28;45348;-57
2023/04/18 01:40:10;;;;;;;;;68.25;53.75;;;;;12.51;52.39;101752.97;5061787;28;46023;-56
2023/04/18 01:42:36;;;;;;;;;68.25;52.25;;;;;12.49;52.22;101746.81;5061596;28;45293;-57
2023/04/18 01:45:01;;;;;;;;;63.00;49.25;;;;;12.48;52.08;101742.47;5061609;28;45256;-56
2023/04/18 01:47:26;;;;;;;;;66.75;53.00;;;;;12.48;52.43;101745.97;5061287;28;45280;-56
2023/04/18 01:49:52;;;;;;;;;70.00;55.00;;;;;12.44;52.33;101740.69;5061382;28;45335;-56
2023/04/18 01:52:17;;;;;;;;;70.75;52.25;;;;;12.42;52.60;101737.22;5061402;28;45304;-56
2023/04/18 01:54:42;;;;;;;;;65.75;51.25;;;;;12.41;52.49;101738.97;5061352;28;45480;-56
2023/04/18 01:57:07;;;;;;;;;69.25;54.00;;;;;12.41;52.42;101732.81;5061182;28;45302;-56
2023/04/18 01:59:33;;;;;;;;;66.25;52.75;;;;;12.38;52.52;101733.72;5061155;28;49758;-57
2023/04/18 02:01:58;;;;;;;;;69.25;52.75;;;;;12.36;52.44;101732.84;5061192;28;45295;-56
2023/04/18 02:04:24;;;;;;;;;69.75;53.50;;;;;12.32;52.27;101734.63;5061029;28;45350;-56
2023/04/18 02:06:49;;;;;;;;;68.25;53.25;;;;;12.33;52.45;101728.47;5061062;28;45392;-57
2023/04/18 02:09:15;;;;;;;;;66.50;53.25;;;;;12.31;52.63;101729.38;5061257;28;45289;-56
2023/04/18 02:11:40;;;;;;;;;65.00;50.50;;;;;12.29;52.58;101732.00;5061022;28;45232;-57
2023/04/18 02:14:06;;;;;;;;;68.25;52.00;;;;;12.28;52.71;101734.66;5061263;28;45277;-57
2023/04/18 02:16:31;;;;;;;;;65.00;51.25;;;;;12.26;52.51;101731.16;5060895;28;45277;-57
2023/04/18 02:18:56;;;;;;;;;68.50;53.00;;;;;12.25;52.54;101732.94;5061389;28;45280;-56
2023/04/18 02:21:22;;;;;;;;;67.25;53.50;;;;;12.22;52.56;101732.91;5060448;28;51313;-55
2023/04/18 02:23:47;;;;;;;;;71.75;53.00;;;;;12.20;52.59;101729.44;5060974;28;46079;-57
2023/04/18 02:26:12;;;;;;;;;70.50;55.75;;;;;12.15;52.48;101718.91;5060389;28;45326;-56
2023/04/18 02:28:38;;;;;;;;;71.00;54.50;;;;;12.16;52.60;101730.31;5061223;28;45431;-56
2023/04/18 02:31:04;;;;;;;;;66.50;52.00;;;;;12.13;52.77;101723.31;5060697;28;45418;-56
2023/04/18 02:33:29;;;;;;;;;67.75;53.25;;;;;12.11;52.51;101725.09;5060866;28;45399;-57
2023/04/18 02:35:54;;;;;;;;;67.25;52.00;;;;;12.09;52.60;101723.31;5058995;28;45332;-57
2023/04/18 02:38:20;;;;;;;;;65.75;51.50;;;;;12.07;52.75;101722.47;5038904;28;52334;-56
2023/04/18 02:40:45;;;;;;;;;68.00;54.00;;;;;12.02;52.58;101723.38;5056495;28;45316;-58
2023/04/18 02:43:11;;;;;;;;;73.25;55.25;;;;;12.03;52.78;101721.59;5060650;28;46311;-57
2023/04/18 02:45:36;;;;;;;;;72.25;55.75;;;;;12.00;52.83;101713.72;5060480;28;45901;-56
2023/04/18 02:48:01;;;;;;;;;73.00;56.50;;;;;12.01;52.80;101715.44;5060637;28;45466;-57
2023/04/18 02:50:28;;;;;;;;;74.00;58.50;;;;;12.00;52.79;101716.38;5060221;28;45456;-60
2023/04/18 02:52:53;;;;;;;;;73.00;56.50;;;;;11.97;52.74;101711.09;5060596;28;45385;-56
2023/04/18 02:55:18;;;;;;;;;72.25;53.75;;;;;11.97;52.76;101705.81;5060330;28;45428;-58
2023/04/18 02:57:44;;;;;;;;;74.00;57.50;;;;;11.95;52.74;101713.72;5060600;28;45556;-58
2023/04/18 03:00:10;;;;;;;;;70.50;53.25;;;;;11.92;52.75;101705.81;5060242;28;45173;-58
2023/04/18 03:02:35;;;;;;;;;69.50;53.75;;;;;11.91;52.52;101709.34;5060473;28;45255;-56
2023/04/18 03:05:00;;;;;;;;;66.00;52.25;;;;;11.90;52.90;101707.59;5060056;28;45313;-57
2023/04/18 03:07:26;;;;;;;;;67.50;52.50;;;;;11.89;52.89;101705.84;5060375;28;45540;-57
2023/04/18 03:09:51;;;;;;;;;72.00;55.25;;;;;11.89;52.88;101711.09;5059961;28;45420;-56
2023/04/18 03:12:16;;;;;;;;;69.75;53.25;;;;;11.87;52.93;101703.22;5060403;28;45236;-57
2023/04/18 03:14:43;;;;;;;;;72.75;56.00;;;;;11.87;52.89;101703.22;5041649;28;45229;-56
2023/04/18 03:17:09;;;;;;;;;66.75;54.75;;;;;11.87;52.86;101710.22;5060272;28;45444;-57
2023/04/18 03:19:34;;;;;;;;;70.00;54.00;;;;;11.87;52.85;101707.59;5059758;28;45362;-57
2023/04/18 03:21:59;;;;;;;;;70.75;54.50;;;;;11.84;52.98;101703.22;5060327;28;45435;-56
2023/04/18 03:24:25;;;;;;;;;60.50;47.50;;;;;11.86;53.00;101706.72;5059980;28;45249;-57
2023/04/18 03:26:50;;;;;;;;;70.75;54.50;;;;;11.86;52.99;101711.09;5059997;28;45478;-57
2023/04/18 03:29:15;;;;;;;;;72.25;54.00;;;;;11.85;52.79;101701.47;5059931;28;45316;-57
2023/04/18 03:31:41;;;;;;;;;70.25;54.00;;;;;11.83;52.99;101704.09;5060058;28;46453;-59
2023/04/18 03:34:06;;;;;;;;;70.75;54.25;;;;;11.84;52.86;101697.06;5057957;28;45319;-57
2023/04/18 03:36:31;;;;;;;;;71.50;54.75;;;;;11.85;53.00;101702.31;5060103;28;45486;-57
2023/04/18 03:38:56;;;;;;;;;67.50;53.50;;;;;11.80;52.72;101690.06;5059359;28;52334;-56
2023/04/18 03:41:22;;;;;;;;;66.00;52.00;;;;;11.86;52.99;101705.81;5059941;28;47704;-57
2023/04/18 03:43:48;;;;;;;;;71.00;54.25;;;;;11.86;52.82;101705.81;5059597;28;45312;-57
2023/04/18 03:46:14;;;;;;;;;71.25;55.00;;;;;11.86;52.92;101703.19;5059899;28;45373;-57
2023/04/18 03:48:39;;;;;;;;;70.00;54.50;;;;;11.86;52.91;101696.19;5058362;28;45398;-55
2023/04/18 03:51:04;;;;;;;;;70.50;55.00;;;;;11.85;52.86;101709.38;5059523;28;45325;-56
2023/04/18 03:53:30;;;;;;;;;64.75;52.25;;;;;11.82;52.94;101699.72;5063294;28;45224;-57
2023/04/18 03:55:55;;;;;;;;;83.33;71.00;;;;;11.85;52.94;101704.97;5063558;28;45212;-57
2023/04/18 03:58:22;;;;;;;;;72.00;54.00;;;;;11.83;53.06;101700.59;5063117;28;45423;-57
2023/04/18 04:00:49;;;;;;;;;70.00;54.00;;;;;11.85;53.06;101706.72;5063078;28;46059;-57
2023/04/18 04:03:14;;;;;;;;;72.75;54.75;;;;;11.85;52.93;101696.19;5063094;28;45393;-56
2023/04/18 04:05:40;;;;;;;;;68.75;53.50;;;;;11.83;52.94;101701.44;5063145;28;45307;-56
2023/04/18 04:08:05;;;;;;;;;72.25;55.00;;;;;11.82;53.05;101698.81;5062878;28;45485;-57
2023/04/18 04:10:30;;;;;;;;;67.50;50.00;;;;;11.82;53.00;101702.34;5044685;28;46924;-57
2023/04/18 04:12:56;;;;;;;;;70.25;56.50;;;;;11.83;53.00;101700.59;5062708;28;47457;-56
2023/04/18 04:15:21;;;;;;;;;70.50;55.00;;;;;11.81;52.92;101691.81;5063442;28;45300;-57
2023/04/18 04:17:46;;;;;;;;;73.00;56.25;;;;;11.81;52.99;101694.44;5062731;28;45591;-57
2023/04/18 04:20:12;;;;;;;;;70.00;53.50;;;;;11.73;53.01;101683.94;5062682;28;46261;-57
2023/04/18 04:22:37;;;;;;;;;67.50;53.75;;;;;11.77;53.00;101685.66;5062835;28;45358;-57
2023/04/18 04:25:04;;;;;;;;;69.00;54.50;;;;;11.78;52.95;101699.72;5062897;28;45375;-57
2023/04/18 04:27:29;;;;;;;;;73.00;55.25;;;;;11.75;52.98;101690.09;5062635;28;45456;-56
2023/04/18 04:29:55;;;;;;;;;77.25;63.75;;;;;11.74;53.06;101684.84;5062494;28;51709;-57
2023/04/18 04:32:21;;;;;;;;;70.50;55.00;;;;;11.73;52.79;101689.19;5058751;28;45791;-56
2023/04/18 04:34:46;;;;;;;;;71.50;54.00;;;;;11.69;53.15;101685.72;5061291;28;45170;-58
2023/04/18 04:37:17;;;;;;;;;70.25;52.25;;;;;11.69;52.89;101682.22;5062190;28;45356;-57
2023/04/18 04:39:43;;;;;;;;;67.50;52.00;;;;;11.65;53.11;101681.34;5062603;28;45450;-56
2023/04/18 04:42:08;;;;;;;;;68.50;54.00;;;;;11.65;52.97;101688.38;5062137;28;45399;-56
2023/04/18 04:44:34;;;;;;;;;71.25;55.75;;;;;11.63;53.14;101693.63;5041195;28;45457;-57
2023/04/18 04:46:59;;;;;;;;;71.00;55.50;;;;;11.62;53.04;101691.00;5052119;28;45334;-58
2023/04/18 04:49:25;;;;;;;;;72.75;55.75;;;;;11.59;52.91;101694.53;5058995;28;45484;-57
2023/04/18 04:51:50;;;;;;;;;72.00;54.75;;;;;11.62;52.97;101688.38;5061999;28;45221;-57
2023/04/18 04:54:15;;;;;;;;;71.25;56.50;;;;;11.61;53.01;101686.63;5062212;28;45127;-56
2023/04/18 04:56:41;;;;;;;;;71.50;53.75;;;;;11.59;53.05;101689.25;5062057;28;45514;-57
2023/04/18 04:59:06;;;;;;;;;66.25;51.50;;;;;11.57;53.16;101691.00;5062130;28;45332;-57
2023/04/18 05:01:31;;;;;;;;;70.50;55.00;;;;;11.55;52.90;101696.28;5061325;28;45351;-56
2023/04/18 05:03:57;;;;;;;;;70.00;56.25;;;;;11.53;53.09;101694.53;5060895;28;45311;-58
2023/04/18 05:06:23;;;;;;;;;69.50;52.25;;;;;11.51;53.09;101691.91;5043359;28;45636;-57
2023/04/18 05:08:49;;;;;;;;;70.00;55.50;;;;;11.51;53.15;101685.78;5061944;28;46203;-57
2023/04/18 05:11:15;;;;;;;;;72.25;54.50;;;;;11.49;53.09;101691.03;5061553;28;45415;-56
2023/04/18 05:13:41;;;;;;;;;67.00;51.75;;;;;11.46;53.12;101684.91;5061792;28;45411;-57
2023/04/18 05:16:06;;;;;;;;;72.25;56.00;;;;;11.47;53.15;101689.28;5061566;28;45392;-57
2023/04/18 05:18:32;;;;;;;;;72.75;56.75;;;;;11.44;53.45;101687.53;5061716;28;45566;-57
2023/04/18 05:20:58;;;;;;;;;75.25;60.50;;;;;11.44;53.27;101691.94;5061386;28;45543;-57
2023/04/18 05:23:23;;;;;;;;;73.75;58.25;;;;;11.43;53.21;101692.81;5061927;28;45308;-57
2023/04/18 05:25:48;;;;;;;;;73.00;55.75;;;;;11.42;53.24;101691.06;5060978;28;50281;-57
2023/04/18 05:28:14;;;;;;;;;69.00;53.50;;;;;11.39;53.28;101689.31;5061417;28;45558;-56
2023/04/18 05:30:39;;;;;;;;;73.50;55.50;;;;;11.39;53.31;101689.31;5061319;28;45345;-56
2023/04/18 05:33:05;;;;;;;;;70.75;54.25;;;;;11.39;53.28;101689.31;5061594;28;45474;-57
2023/04/18 05:35:30;;;;;;;;;72.50;56.25;;;;;11.39;53.31;101699.84;5059585;28;45434;-55
2023/04/18 05:37:56;;;;;;;;;62.25;49.50;;;;;11.38;53.37;101701.59;5025664;28;46985;-56
2023/04/18 05:40:22;;;;;;;;;68.00;54.25;;;;;11.38;53.40;101696.34;5061163;28;45324;-58
2023/04/18 05:42:47;;;;;;;;;74.25;56.00;;;;;11.34;53.42;101685.81;5061861;28;45316;-58
2023/04/18 05:45:12;;;;;;;;;70.75;56.50;;;;;11.41;53.35;101692.81;5043309;28;45591;-59
2023/04/18 05:47:38;;;;;;;;;74.00;57.25;;;;;11.43;53.35;101703.34;5043150;28;47755;-58
2023/04/18 05:50:04;;;;;;;;;70.75;54.50;;;;;11.43;53.53;101690.19;5061172;28;45437;-58
2023/04/18 05:52:31;;;;;;;;;66.50;52.00;;;;;11.42;53.61;101697.22;5062173;28;45470;-57
2023/04/18 05:54:56;;;;;;;;;73.25;59.25;;;;;11.42;53.45;101701.59;5061156;28;45501;-57
2023/04/18 05:57:21;;;;;;;;;68.50;54.75;;;;;11.43;53.53;101700.72;5061317;28;45331;-58
2023/04/18 05:59:46;;;;;;;;;70.25;55.75;;;;;11.42;53.50;101694.59;5060879;28;55592;-58
2023/04/18 06:02:12;;;;;;;;;71.00;53.50;;;;;11.38;53.49;101693.72;5061263;28;45352;-58
2023/04/18 06:04:40;;;;;;;;;68.75;54.00;;;;;11.40;53.60;101700.75;5061120;28;45494;-58
2023/04/18 06:07:06;;;;;;;;;67.50;51.25;;;;;11.40;53.69;101698.97;5043024;28;47465;-56
2023/04/18 06:09:32;;;;;;;;;75.00;56.25;;;;;11.39;53.59;101694.56;5061026;28;45451;-57
2023/04/18 06:11:57;;;;;;;;;71.25;55.00;;;;;11.37;53.59;101694.59;5061308;28;45333;-56
2023/04/18 06:14:22;;;;;;;;;76.75;58.50;;;;;11.35;53.69;101693.69;5060477;28;45324;-58
2023/04/18 06:16:48;;;;;;;;;73.50;55.25;;;;;11.35;53.69;101690.22;5056392;28;47065;-59
2023/04/18 06:19:14;;;;;;;;;76.25;58.50;;;;;11.32;53.58;101691.09;5055955;28;45170;-70
2023/04/18 06:21:41;;;;;;;;;71.75;55.50;;;;;11.36;53.71;101694.59;5060887;28;45289;-59
2023/04/18 06:24:07;;;;;;;;;73.75;55.00;;;;;11.36;53.66;101694.59;5060856;28;45386;-59
2023/04/18 06:26:32;;;;;;;;;75.75;59.50;;;;;11.36;53.61;101691.97;5035549;28;47341;-59
2023/04/18 06:28:58;;;;;;;;;74.25;56.00;;;;;11.36;53.77;101689.34;5037401;28;48908;-59
2023/04/18 06:31:23;;;;;;;;;75.00;58.50;;;;;11.35;54.03;101690.22;5059049;28;48671;-59
2023/04/18 06:33:48;;;;;;;;;74.75;58.75;;;;;11.34;53.85;101697.22;5057490;28;50100;-59
2023/04/18 06:36:14;;;;;;;;;74.50;57.00;;;;;11.31;53.94;101702.50;5047041;28;45966;-59
2023/04/18 06:38:39;;;;;;;;;68.50;54.25;;;;;11.34;53.66;101698.97;5055373;28;45399;-59
2023/04/18 06:41:04;;;;;;;;;72.00;57.25;;;;;11.33;53.99;101691.97;5060229;28;46764;-59
2023/04/18 06:43:30;;;;;;;;;74.00;59.75;;;;;11.33;54.05;101692.84;5048809;28;45536;-59
2023/04/18 06:45:55;;;;;;;;;74.25;56.00;;;;;11.34;53.88;101691.94;5058837;28;45165;-59
2023/04/18 06:48:21;;;;;;;;;67.25;50.75;;;;;11.36;54.08;101690.19;5058640;28;45312;-59
2023/04/18 06:50:46;;;;;;;;;70.50;54.50;;;;;11.34;53.94;101689.31;5059589;28;45340;-59
2023/04/18 06:53:13;;;;;;;;;76.50;56.25;;;;;11.40;53.96;101695.47;5059711;28;45602;-59
2023/04/18 06:55:39;;;;;;;;;75.00;60.50;;;;;11.41;54.07;101707.72;5059693;28;46336;-59
2023/04/18 06:58:05;;;;;;;;;73.75;55.25;;;;;11.43;54.03;101705.97;5052896;28;45678;-58
2023/04/18 07:00:30;;;;;;;;;72.25;57.25;;;;;11.44;54.04;101702.47;5060471;28;45419;-59
2023/04/18 07:02:55;;;;;;;;;71.75;55.75;;;;;11.45;54.04;101699.81;5039930;28;45442;-59
2023/04/18 07:05:21;;;;;;;;;79.25;62.50;;;;;11.47;54.14;101702.44;5059858;28;45297;-59
2023/04/18 07:07:46;;;;;;;;;69.00;54.75;;;;;11.51;54.12;101704.22;5059938;28;45317;-59
2023/04/18 07:10:11;;;;;;;;;74.25;57.25;;;;;11.53;54.21;101697.16;5059995;28;45436;-59
2023/04/18 07:12:37;;;;;;;;;70.25;55.00;;;;;11.54;54.02;101702.44;5059883;28;45455;-59
2023/04/18 07:15:03;;;;;;;;;72.25;57.00;;;;;11.55;54.07;101698.91;5057886;28;45600;-59
2023/04/18 07:17:28;;;;;;;;;70.25;54.00;;;;;11.60;54.17;101695.41;5059814;28;45339;-59
2023/04/18 07:19:54;;;;;;;;;73.50;55.00;;;;;11.60;54.14;101706.81;5059465;28;45438;-59
2023/04/18 07:22:19;;;;;;;;;72.00;54.25;;;;;11.62;54.25;101712.97;5041570;28;45534;-59
2023/04/18 07:24:44;;;;;;;;;78.25;58.50;;;;;11.63;54.43;101700.66;5059977;28;45351;-60
2023/04/18 07:27:10;;;;;;;;;66.75;53.25;;;;;11.67;53.89;101718.19;5052282;28;45368;-59
2023/04/18 07:29:35;;;;;;;;;70.25;54.50;;;;;11.69;54.29;101704.13;5059750;28;45282;-59
2023/04/18 07:32:01;;;;;;;;;77.50;60.50;;;;;11.69;54.38;101701.50;5041409;28;45297;-59
2023/04/18 07:34:28;;;;;;;;;73.00;55.00;;;;;11.73;54.28;101707.63;5040554;28;47679;-59
2023/04/18 07:36:57;;;;;;;;;68.50;54.50;;;;;11.76;54.22;101694.47;5059582;28;45375;-59
2023/04/18 07:39:22;;;;;;;;;70.25;54.50;;;;;11.78;54.30;101694.47;5059197;28;45426;-60
2023/04/18 07:41:47;;;;;;;;;71.00;54.75;;;;;11.80;54.36;101687.44;5041519;28;45407;-58
2023/04/18 07:44:12;;;;;;;;;72.00;55.25;;;;;11.85;54.21;101690.94;5059267;28;45284;-58
2023/04/18 07:46:38;;;;;;;;;71.75;55.25;;;;;11.85;54.28;101689.16;5059317;28;45360;-58
2023/04/18 07:49:03;;;;;;;;;74.75;56.75;;;;;11.87;54.23;101683.88;5059310;28;45380;-59
2023/04/18 07:51:32;;;;;;;;;64.25;52.50;;;;;11.92;54.24;101687.38;5059503;28;45537;-59
2023/04/18 07:53:58;;;;;;;;;71.50;54.25;;;;;11.95;54.30;101690.00;5035296;28;47546;-59
2023/04/18 07:56:24;;;;;;;;;69.00;55.00;;;;;11.98;54.27;101687.38;5047148;28;45473;-59
2023/04/18 07:58:50;;;;;;;;;66.25;53.75;;;;;12.02;54.31;101691.75;5058935;28;45449;-58
2023/04/18 08:01:17;;;;;;;;;65.50;52.00;;;;;12.07;54.21;101690.84;5059311;28;45516;-59
2023/04/18 08:03:43;;;;;;;;;67.25;52.50;;;;;12.09;54.27;101686.44;5059226;28;45363;-59
2023/04/18 08:06:08;;;;;;;;;68.00;53.75;;;;;12.13;54.28;101685.56;5059284;28;45788;-59
2023/04/18 08:08:34;;;;;;;;;72.00;55.00;;;;;12.16;54.19;101686.41;5059217;28;45313;-59
2023/04/18 08:10:59;;;;;;;;;68.75;51.25;;;;;12.19;54.27;101678.47;5041349;28;45487;-58
2023/04/18 08:13:25;;;;;;;;;68.00;54.00;;;;;12.24;54.40;101680.19;5041124;28;47396;-58
2023/04/18 08:15:50;;;;;;;;;65.00;51.50;;;;;12.29;54.12;101679.31;5037737;28;45427;-59
2023/04/18 08:18:15;;;;;;;;;66.50;54.00;;;;;12.26;54.44;101663.50;5058879;28;45601;-58
2023/04/18 08:20:41;;;;;;;;;68.75;52.25;;;;;12.37;54.21;101681.03;5058985;28;45459;-59
2023/04/18 08:23:07;;;;;;;;;70.50;53.50;;;;;12.42;54.10;101676.59;5058987;28;46245;-58
2023/04/18 08:25:33;;;;;;;;;68.50;52.75;;;;;12.47;54.10;101680.06;5059036;28;45336;-58
2023/04/18 08:27:58;;;;;;;;;65.00;52.50;;;;;12.51;54.04;101690.59;5052312;28;45427;-58
2023/04/18 08:30:23;;;;;;;;;73.25;52.75;;;;;12.52;54.26;101680.91;5058779;28;45288;-59
2023/04/18 08:32:49;;;;;;;;;63.50;49.25;;;;;12.59;54.09;101681.72;5048626;28;48240;-59
2023/04/18 08:35:14;;;;;;;;;66.50;52.00;;;;;12.62;54.25;101672.03;5051051;28;45277;-59
2023/04/18 08:37:40;;;;;;;;;61.25;50.75;;;;;12.66;54.21;101673.75;5058313;28;45588;-59
2023/04/18 08:40:06;;;;;;;;;69.75;54.50;;;;;12.71;54.22;101667.59;5040622;28;45423;-59
2023/04/18 08:42:32;;;;;;;;;66.00;51.00;;;;;12.71;53.85;101665.81;5024848;28;48264;-59
2023/04/18 08:45:01;;;;;;;;;68.50;53.00;;;;;12.79;53.93;101669.28;5054415;28;45324;-59
2023/04/18 08:47:30;;;;;;;;;63.50;50.50;;;;;12.84;54.09;101661.28;5062110;28;45364;-58
2023/04/18 08:49:56;;;;;;;;;66.00;51.50;;;;;12.87;54.23;101660.38;5062005;28;45380;-59
2023/04/18 08:52:22;;;;;;;;;63.50;49.50;;;;;12.95;54.20;101659.44;5061707;28;45543;-59
2023/04/18 08:54:49;;;;;;;;;69.75;51.75;;;;;13.01;54.15;101656.75;5043714;28;45379;-57
2023/04/18 08:57:15;;;;;;;;;67.00;52.75;;;;;13.08;53.76;101656.69;5055760;28;45443;-57
2023/04/18 08:59:44;;;;;;;;;65.00;50.75;;;;;13.14;53.80;101656.63;5060394;28;45555;-57
2023/04/18 09:02:11;;;;;;;;;62.50;49.00;;;;;13.20;53.94;101656.56;5062007;28;46200;-57
2023/04/18 09:04:39;;;;;;;;;59.50;47.75;;;;;13.17;54.28;101644.28;5048955;28;45365;-57
2023/04/18 09:07:15;;;;;;;;;59.75;46.25;;;;;13.31;53.94;101648.53;5043987;28;45306;-57
2023/04/18 09:09:51;;;;;;;;;62.75;48.25;;;;;13.39;54.07;101659.03;5061668;28;45581;-57
2023/04/18 09:12:22;;;;;;;;;61.25;47.75;;;;;13.45;53.79;101651.06;5061865;28;45305;-57
2023/04/18 09:15:08;;;;;;;;;60.50;47.25;;;;;13.51;54.02;101653.63;5061718;28;45464;-57
2023/04/18 09:17:34;;;;;;;;;59.75;48.75;;;;;13.58;53.75;101649.13;5061753;28;45393;-57
2023/04/18 09:20:05;;;;;;;;;62.00;48.50;;;;;13.63;53.80;101635.00;5061543;28;45514;-57
2023/04/18 09:22:50;;;;;;;;;59.50;46.50;;;;;13.73;53.44;101648.06;5043516;28;47180;-57
2023/04/18 09:25:34;;;;;;;;;63.00;47.75;;;;;13.80;53.34;101639.19;5061713;28;45319;-57
2023/04/18 09:28:01;;;;;;;;;54.75;44.25;;;;;13.86;53.56;101639.09;5035480;28;45255;-57
2023/04/18 09:30:39;;;;;;;;;62.00;50.00;;;;;13.92;53.82;101635.47;5061529;28;45290;-57
2023/04/18 09:33:10;;;;;;;;;61.00;46.75;;;;;14.00;53.36;101630.97;5052241;28;46278;-57
2023/04/18 09:35:36;;;;;;;;;61.25;48.25;;;;;14.08;53.64;101622.94;5059457;28;45294;-57
2023/04/18 09:38:02;;;;;;;;;63.25;48.50;;;;;14.16;53.83;101621.03;5061305;28;45311;-57
2023/04/18 09:40:28;;;;;;;;;55.75;44.75;;;;;14.20;53.38;101617.47;5061097;28;45531;-57
2023/04/18 09:42:53;;;;;;;;;57.75;46.25;;;;;14.32;53.76;101613.75;5061539;28;45436;-57
2023/04/18 09:45:19;;;;;;;;;61.25;46.25;;;;;14.44;53.34;101615.34;5061186;28;45361;-57
2023/04/18 09:47:44;;;;;;;;;56.50;44.75;;;;;14.53;53.49;101609.03;5061394;28;45349;-58
2023/04/18 09:50:10;;;;;;;;;57.75;45.25;;;;;14.66;53.61;101615.00;5060042;28;45263;-58
2023/04/18 09:52:40;;;;;;;;;57.00;45.50;;;;;14.79;53.18;101616.50;5043031;28;46188;-58
2023/04/18 09:55:11;;;;;;;;;55.25;42.25;;;;;14.94;53.36;101610.94;5061000;28;45478;-57
2023/04/18 09:57:41;;;;;;;;;63.50;48.75;;;;;15.08;53.43;101612.44;5036900;28;45296;-58
2023/04/18 10:00:12;;;;;;;;;59.25;46.25;;;;;15.24;52.96;101605.09;5060635;28;45402;-58
2023/04/18 10:02:46;;;;;;;;;57.75;47.00;;;;;15.43;53.29;101605.56;5060954;28;46170;-58
2023/04/18 10:05:13;;;;;;;;;60.75;47.50;;;;;15.64;53.03;101600.75;5059542;28;45760;-58
2023/04/18 10:07:39;;;;;;;;;56.50;46.00;;;;;15.81;53.54;101593.31;5030524;28;45684;-58
2023/04/18 10:10:05;;;;;;;;;55.25;44.50;;;;;16.07;53.30;101599.78;5060371;28;45257;-58
2023/04/18 10:12:32;;;;;;;;;60.25;48.50;;;;;16.31;53.34;101593.03;5061047;28;46954;-58
2023/04/18 10:14:58;;;;;;;;;53.75;43.25;;;;;16.53;53.26;101582.75;5061068;28;45332;-58
2023/04/18 10:17:26;;;;;;;;;51.75;39.25;;;;;16.80;53.98;101588.22;5061307;28;45494;-58
2023/04/18 10:20:18;;;;;;;;;61.75;48.50;;;;;17.10;53.55;101582.19;5061021;28;45278;-58
2023/04/18 10:22:45;;;;;;;;;62.25;45.50;;;;;17.34;53.46;101580.59;5060822;28;45407;-58
2023/04/18 10:25:10;;;;;;;;;44.75;39.00;;;;;17.59;53.41;101569.25;5060972;28;45246;-58
2023/04/18 10:27:48;;;;;;;;;50.00;41.75;;;;;17.93;53.18;101574.38;5060743;28;46026;-58
2023/04/18 10:30:14;;;;;;;;;50.75;42.50;;;;;18.18;53.46;101571.81;5060677;28;45238;-58
2023/04/18 10:32:40;;;;;;;;;46.00;37.50;;;;;18.46;53.07;101567.38;5060623;28;46125;-58
2023/04/18 10:35:06;;;;;;;;;42.00;35.25;;;;;18.72;53.01;101569.13;5059213;28;45658;-58
2023/04/18 10:37:32;;;;;;;;;46.25;37.50;;;;;18.98;53.26;101556.69;5060542;28;45498;-58
2023/04/18 10:40:05;;;;;;;;;50.75;41.50;;;;;19.21;53.15;101558.50;5060673;28;45366;-58
2023/04/18 10:42:45;;;;;;;;;50.75;41.00;;;;;19.49;52.77;101557.47;5060573;28;46002;-58
2023/04/18 10:45:21;;;;;;;;;39.75;35.25;;;;;19.72;52.19;101548.56;5060543;28;45229;-58
2023/04/18 10:47:47;;;;;;;;;46.00;36.25;;;;;19.89;52.27;101552.38;5042720;28;45265;-58
2023/04/18 10:50:13;;;;;;;;;44.75;37.50;;;;;20.09;52.30;101551.56;5060383;28;45190;-58
2023/04/18 10:52:40;;;;;;;;;33.00;27.75;;;;;20.26;52.01;101543.72;5060625;28;45982;-58
2023/04/18 10:55:12;;;;;;;;;42.00;34.75;;;;;20.45;51.29;101546.47;5060287;28;45447;-58
2023/04/18 10:57:45;;;;;;;;;40.50;33.50;;;;;20.61;51.44;101545.81;5055961;28;45344;-58
2023/04/18 11:00:14;;;;;;;;;46.75;36.50;;;;;20.75;51.18;101548.78;5058066;28;45215;-58
2023/04/18 11:02:49;;;;;;;;;49.00;40.75;;;;;20.87;50.65;101542.00;5040430;28;47333;-57
2023/04/18 11:05:18;;;;;;;;;43.50;37.50;;;;;20.99;50.87;101540.56;5059963;28;45466;-57